sensor_id;sensor_type;location;lat;lon;timestamp;temperature;humidity
20446;DHT22;10382;49.140;9.234;2023-05-10T00:00:30;16.80;99.90
20446;DHT22;10382;49.140;9.234;2023-05-10T00:02:57;16.80;99.90
20446;DHT22;10382;49.140;9.234;2023-05-10T00:05:24;16.70;99.90
20446;DHT22;10382;49.140;9.234;2023-05-10T00:07:51;16.60;99.90
20446;DHT22;10382;49.140;9.234;2023-05-10T00:10:19;16.60;99.90
20446;DHT22;10382;49.140;9.234;2023-05-10T00:12:46;16.50;99.90
20446;DHT22;10382;49.140;9.234;2023-05-10T00:15:13;16.50;99.90
20446;DHT22;10382;49.140;9.234;2023-05-10T00:17:40;16.50;99.90
20446;DHT22;10382;49.140;9.234;2023-05-10T00:20:08;16.60;99.90
20446;DHT22;10382;49.140;9.234;2023-05-10T00:22:35;16.50;99.90
20446;DHT22;10382;49.140;9.234;2023-05-10T00:25:02;16.40;99.90
20446;DHT22;10382;49.140;9.234;2023-05-10T00:27:30;16.30;99.90
20446;DHT22;10382;49.140;9.234;2023-05-10T00:29:57;16.30;99.90
20446;DHT22;10382;49.140;9.234;2023-05-10T00:32:24;16.30;99.90
20446;DHT22;10382;49.140;9.234;2023-05-10T00:34:50;16.30;99.90
20446;DHT22;10382;49.140;9.234;2023-05-10T00:37:17;16.40;99.90
20446;DHT22;10382;49.140;9.234;2023-05-10T00:39:44;16.40;99.90
20446;DHT22;10382;49.140;9.234;2023-05-10T00:42:11;16.40;99.90
20446;DHT22;10382;49.140;9.234;2023-05-10T00:44:39;16.30;99.90
20446;DHT22;10382;49.140;9.234;2023-05-10T00:47:06;16.20;99.90
20446;DHT22;10382;49.140;9.234;2023-05-10T00:49:34;16.10;99.90
20446;DHT22;10382;49.140;9.234;2023-05-10T00:52:01;16.10;99.90
20446;DHT22;10382;49.140;9.234;2023-05-10T00:54:28;16.10;99.90
20446;DHT22;10382;49.140;9.234;2023-05-10T00:56:55;16.10;99.90
20446;DHT22;10382;49.140;9.234;2023-05-10T00:59:23;16.10;99.90
20446;DHT22;10382;49.140;9.234;2023-05-10T01:01:52;16.10;99.90
20446;DHT22;10382;49.140;9.234;2023-05-10T01:04:19;16.00;99.90
20446;DHT22;10382;49.140;9.234;2023-05-10T01:06:51;16.00;99.90
20446;DHT22;10382;49.140;9.234;2023-05-10T01:09:19;16.00;99.90
20446;DHT22;10382;49.140;9.234;2023-05-10T01:11:46;16.00;99.90
20446;DHT22;10382;49.140;9.234;2023-05-10T01:14:15;16.00;99.90
20446;DHT22;10382;49.140;9.234;2023-05-10T01:16:44;16.00;99.90
20446;DHT22;10382;49.140;9.234;2023-05-10T01:19:18;16.00;99.90
20446;DHT22;10382;49.140;9.234;2023-05-10T01:21:50;15.90;99.90
20446;DHT22;10382;49.140;9.234;2023-05-10T01:24:49;15.90;99.90
20446;DHT22;10382;49.140;9.234;2023-05-10T01:33:30;15.60;99.90
20446;DHT22;10382;49.140;9.234;2023-05-10T01:36:05;15.50;99.90
20446;DHT22;10382;49.140;9.234;2023-05-10T01:38:40;15.40;99.90
20446;DHT22;10382;49.140;9.234;2023-05-10T01:41:13;15.30;99.90
20446;DHT22;10382;49.140;9.234;2023-05-10T01:43:47;15.30;99.90
20446;DHT22;10382;49.140;9.234;2023-05-10T01:46:20;15.40;99.90
20446;DHT22;10382;49.140;9.234;2023-05-10T01:48:52;15.30;99.90
20446;DHT22;10382;49.140;9.234;2023-05-10T01:51:23;15.30;99.90
20446;DHT22;10382;49.140;9.234;2023-05-10T01:53:56;15.30;99.90
20446;DHT22;10382;49.140;9.234;2023-05-10T01:56:26;15.30;99.90
20446;DHT22;10382;49.140;9.234;2023-05-10T01:58:55;15.30;99.90
20446;DHT22;10382;49.140;9.234;2023-05-10T02:01:24;15.20;99.90
20446;DHT22;10382;49.140;9.234;2023-05-10T02:03:53;15.20;99.90
20446;DHT22;10382;49.140;9.234;2023-05-10T02:06:22;15.10;99.90
20446;DHT22;10382;49.140;9.234;2023-05-10T02:08:51;15.10;99.90
20446;DHT22;10382;49.140;9.234;2023-05-10T02:11:19;15.20;99.90
20446;DHT22;10382;49.140;9.234;2023-05-10T02:13:49;15.20;99.90
20446;DHT22;10382;49.140;9.234;2023-05-10T02:16:17;15.10;99.90
20446;DHT22;10382;49.140;9.234;2023-05-10T02:18:45;15.00;99.90
20446;DHT22;10382;49.140;9.234;2023-05-10T02:21:14;15.00;99.90
20446;DHT22;10382;49.140;9.234;2023-05-10T02:23:43;15.10;99.90
20446;DHT22;10382;49.140;9.234;2023-05-10T02:26:10;15.20;99.90
20446;DHT22;10382;49.140;9.234;2023-05-10T02:28:40;15.20;99.90
20446;DHT22;10382;49.140;9.234;2023-05-10T02:31:08;15.20;99.90
20446;DHT22;10382;49.140;9.234;2023-05-10T02:33:37;15.20;99.90
20446;DHT22;10382;49.140;9.234;2023-05-10T02:36:07;15.30;99.90
20446;DHT22;10382;49.140;9.234;2023-05-10T02:38:37;15.30;99.90
20446;DHT22;10382;49.140;9.234;2023-05-10T02:41:05;15.30;99.90
20446;DHT22;10382;49.140;9.234;2023-05-10T02:43:35;15.30;99.90
20446;DHT22;10382;49.140;9.234;2023-05-10T02:46:02;15.40;99.90
20446;DHT22;10382;49.140;9.234;2023-05-10T02:48:29;15.50;99.90
20446;DHT22;10382;49.140;9.234;2023-05-10T02:51:02;15.60;99.90
20446;DHT22;10382;49.140;9.234;2023-05-10T02:53:31;15.60;99.90
20446;DHT22;10382;49.140;9.234;2023-05-10T02:56:05;15.60;99.90
20446;DHT22;10382;49.140;9.234;2023-05-10T02:58:33;15.50;99.90
20446;DHT22;10382;49.140;9.234;2023-05-10T03:01:00;15.50;99.90
20446;DHT22;10382;49.140;9.234;2023-05-10T03:03:27;15.50;99.90
20446;DHT22;10382;49.140;9.234;2023-05-10T03:05:54;15.50;99.90
20446;DHT22;10382;49.140;9.234;2023-05-10T03:08:21;15.60;99.90
20446;DHT22;10382;49.140;9.234;2023-05-10T03:10:57;15.60;99.90
20446;DHT22;10382;49.140;9.234;2023-05-10T03:13:32;15.60;99.90
20446;DHT22;10382;49.140;9.234;2023-05-10T03:16:08;15.60;99.90
20446;DHT22;10382;49.140;9.234;2023-05-10T03:18:42;15.50;99.90
20446;DHT22;10382;49.140;9.234;2023-05-10T03:21:11;15.60;99.90
20446;DHT22;10382;49.140;9.234;2023-05-10T03:23:43;15.60;99.90
20446;DHT22;10382;49.140;9.234;2023-05-10T03:26:17;15.60;99.90
20446;DHT22;10382;49.140;9.234;2023-05-10T03:28:46;15.60;99.90
20446;DHT22;10382;49.140;9.234;2023-05-10T03:31:14;15.70;99.90
20446;DHT22;10382;49.140;9.234;2023-05-10T03:33:46;15.70;99.90
20446;DHT22;10382;49.140;9.234;2023-05-10T03:36:13;15.70;99.90
20446;DHT22;10382;49.140;9.234;2023-05-10T03:38:40;15.80;99.90
20446;DHT22;10382;49.140;9.234;2023-05-10T03:41:07;15.80;99.90
20446;DHT22;10382;49.140;9.234;2023-05-10T03:43:34;15.80;99.90
20446;DHT22;10382;49.140;9.234;2023-05-10T03:46:03;15.80;99.90
20446;DHT22;10382;49.140;9.234;2023-05-10T03:48:30;15.80;99.90
20446;DHT22;10382;49.140;9.234;2023-05-10T03:50:57;15.80;99.90
20446;DHT22;10382;49.140;9.234;2023-05-10T03:53:24;15.70;99.90
20446;DHT22;10382;49.140;9.234;2023-05-10T03:55:51;15.70;99.90
20446;DHT22;10382;49.140;9.234;2023-05-10T03:58:18;15.60;99.90
20446;DHT22;10382;49.140;9.234;2023-05-10T04:00:44;15.60;99.90
20446;DHT22;10382;49.140;9.234;2023-05-10T04:03:13;15.50;99.90
20446;DHT22;10382;49.140;9.234;2023-05-10T04:05:40;15.40;99.90
20446;DHT22;10382;49.140;9.234;2023-05-10T04:08:07;15.30;99.90
20446;DHT22;10382;49.140;9.234;2023-05-10T04:10:35;15.20;99.90
20446;DHT22;10382;49.140;9.234;2023-05-10T04:13:02;15.20;99.90
20446;DHT22;10382;49.140;9.234;2023-05-10T04:15:29;15.10;99.90
20446;DHT22;10382;49.140;9.234;2023-05-10T04:17:56;15.20;99.90
20446;DHT22;10382;49.140;9.234;2023-05-10T04:20:24;15.10;99.90
20446;DHT22;10382;49.140;9.234;2023-05-10T04:22:52;15.20;99.90
20446;DHT22;10382;49.140;9.234;2023-05-10T04:25:19;15.20;99.90
20446;DHT22;10382;49.140;9.234;2023-05-10T04:27:47;15.20;99.90
20446;DHT22;10382;49.140;9.234;2023-05-10T04:30:14;15.10;99.90
20446;DHT22;10382;49.140;9.234;2023-05-10T04:32:42;15.20;99.90
20446;DHT22;10382;49.140;9.234;2023-05-10T04:35:09;15.20;99.90
20446;DHT22;10382;49.140;9.234;2023-05-10T04:37:38;15.10;99.90
20446;DHT22;10382;49.140;9.234;2023-05-10T04:40:06;15.10;99.90
20446;DHT22;10382;49.140;9.234;2023-05-10T04:42:34;15.20;99.90
20446;DHT22;10382;49.140;9.234;2023-05-10T04:45:01;15.20;99.90
20446;DHT22;10382;49.140;9.234;2023-05-10T04:47:29;15.20;99.90
20446;DHT22;10382;49.140;9.234;2023-05-10T04:49:56;15.30;99.90
20446;DHT22;10382;49.140;9.234;2023-05-10T04:52:22;15.30;99.90
20446;DHT22;10382;49.140;9.234;2023-05-10T04:54:51;15.30;99.90
20446;DHT22;10382;49.140;9.234;2023-05-10T04:57:17;15.40;99.90
20446;DHT22;10382;49.140;9.234;2023-05-10T04:59:44;15.30;99.90
20446;DHT22;10382;49.140;9.234;2023-05-10T05:02:11;15.30;99.90
20446;DHT22;10382;49.140;9.234;2023-05-10T05:04:38;15.20;99.90
20446;DHT22;10382;49.140;9.234;2023-05-10T05:07:05;15.30;99.90
20446;DHT22;10382;49.140;9.234;2023-05-10T05:09:32;15.30;99.90
20446;DHT22;10382;49.140;9.234;2023-05-10T05:12:00;15.30;99.90
20446;DHT22;10382;49.140;9.234;2023-05-10T05:14:27;15.40;99.90
20446;DHT22;10382;49.140;9.234;2023-05-10T05:16:53;15.50;99.90
20446;DHT22;10382;49.140;9.234;2023-05-10T05:19:21;15.50;99.90
20446;DHT22;10382;49.140;9.234;2023-05-10T05:21:48;15.60;99.90
20446;DHT22;10382;49.140;9.234;2023-05-10T05:24:15;15.60;99.90
20446;DHT22;10382;49.140;9.234;2023-05-10T05:26:41;15.60;99.90
20446;DHT22;10382;49.140;9.234;2023-05-10T05:29:10;15.60;99.90
20446;DHT22;10382;49.140;9.234;2023-05-10T05:31:37;15.60;99.90
20446;DHT22;10382;49.140;9.234;2023-05-10T05:34:03;15.60;99.90
20446;DHT22;10382;49.140;9.234;2023-05-10T05:36:30;15.60;99.90
20446;DHT22;10382;49.140;9.234;2023-05-10T05:38:58;15.70;99.90
20446;DHT22;10382;49.140;9.234;2023-05-10T05:41:25;15.70;99.90
20446;DHT22;10382;49.140;9.234;2023-05-10T05:43:51;15.80;99.90
20446;DHT22;10382;49.140;9.234;2023-05-10T05:46:20;15.90;99.90
20446;DHT22;10382;49.140;9.234;2023-05-10T05:48:46;16.00;99.90
20446;DHT22;10382;49.140;9.234;2023-05-10T05:51:13;16.00;99.90
20446;DHT22;10382;49.140;9.234;2023-05-10T05:53:40;16.00;99.90
20446;DHT22;10382;49.140;9.234;2023-05-10T05:56:07;16.00;99.90
20446;DHT22;10382;49.140;9.234;2023-05-10T05:58:35;16.00;99.90
20446;DHT22;10382;49.140;9.234;2023-05-10T06:01:02;16.10;99.90
20446;DHT22;10382;49.140;9.234;2023-05-10T06:03:30;16.10;99.90
20446;DHT22;10382;49.140;9.234;2023-05-10T06:05:58;16.10;99.90
20446;DHT22;10382;49.140;9.234;2023-05-10T06:08:25;16.20;99.90
20446;DHT22;10382;49.140;9.234;2023-05-10T06:10:51;16.20;99.90
20446;DHT22;10382;49.140;9.234;2023-05-10T06:13:18;16.10;99.90
20446;DHT22;10382;49.140;9.234;2023-05-10T06:15:45;16.20;99.90
20446;DHT22;10382;49.140;9.234;2023-05-10T06:18:12;16.20;99.90
20446;DHT22;10382;49.140;9.234;2023-05-10T06:20:41;16.20;99.90
20446;DHT22;10382;49.140;9.234;2023-05-10T06:23:08;16.10;99.90
20446;DHT22;10382;49.140;9.234;2023-05-10T06:25:34;16.20;99.90
20446;DHT22;10382;49.140;9.234;2023-05-10T06:28:02;16.30;99.90
20446;DHT22;10382;49.140;9.234;2023-05-10T06:30:29;16.50;99.90
20446;DHT22;10382;49.140;9.234;2023-05-10T06:32:56;16.50;99.90
20446;DHT22;10382;49.140;9.234;2023-05-10T06:35:23;16.40;99.90
20446;DHT22;10382;49.140;9.234;2023-05-10T06:37:51;16.30;99.90
20446;DHT22;10382;49.140;9.234;2023-05-10T06:40:18;16.40;99.90
20446;DHT22;10382;49.140;9.234;2023-05-10T06:42:45;16.50;99.90
20446;DHT22;10382;49.140;9.234;2023-05-10T06:45:12;16.60;99.90
20446;DHT22;10382;49.140;9.234;2023-05-10T06:47:40;16.70;99.90
20446;DHT22;10382;49.140;9.234;2023-05-10T06:50:07;16.60;99.90
20446;DHT22;10382;49.140;9.234;2023-05-10T06:52:34;16.60;99.90
20446;DHT22;10382;49.140;9.234;2023-05-10T06:55:03;16.60;99.90
20446;DHT22;10382;49.140;9.234;2023-05-10T06:57:30;16.70;99.90
20446;DHT22;10382;49.140;9.234;2023-05-10T06:59:57;16.70;99.90
20446;DHT22;10382;49.140;9.234;2023-05-10T07:02:24;16.80;99.90
20446;DHT22;10382;49.140;9.234;2023-05-10T07:04:51;16.80;99.90
20446;DHT22;10382;49.140;9.234;2023-05-10T07:07:18;16.90;99.90
20446;DHT22;10382;49.140;9.234;2023-05-10T07:09:45;16.80;99.90
20446;DHT22;10382;49.140;9.234;2023-05-10T07:12:14;16.60;99.90
20446;DHT22;10382;49.140;9.234;2023-05-10T07:14:40;16.50;99.90
20446;DHT22;10382;49.140;9.234;2023-05-10T07:17:07;16.40;99.90
20446;DHT22;10382;49.140;9.234;2023-05-10T07:19:34;16.30;99.90
20446;DHT22;10382;49.140;9.234;2023-05-10T07:22:01;16.30;99.90
20446;DHT22;10382;49.140;9.234;2023-05-10T07:24:28;16.20;99.90
20446;DHT22;10382;49.140;9.234;2023-05-10T07:26:55;16.20;99.90
20446;DHT22;10382;49.140;9.234;2023-05-10T07:29:23;16.20;99.90
20446;DHT22;10382;49.140;9.234;2023-05-10T07:31:50;16.20;99.90
20446;DHT22;10382;49.140;9.234;2023-05-10T07:34:17;16.30;99.90
20446;DHT22;10382;49.140;9.234;2023-05-10T07:36:44;16.20;99.90
20446;DHT22;10382;49.140;9.234;2023-05-10T07:39:10;16.30;99.90
20446;DHT22;10382;49.140;9.234;2023-05-10T07:41:37;16.20;99.90
20446;DHT22;10382;49.140;9.234;2023-05-10T07:44:04;16.10;99.90
20446;DHT22;10382;49.140;9.234;2023-05-10T07:46:33;16.10;99.90
20446;DHT22;10382;49.140;9.234;2023-05-10T07:49:00;16.10;99.90
20446;DHT22;10382;49.140;9.234;2023-05-10T07:51:26;16.00;99.90
20446;DHT22;10382;49.140;9.234;2023-05-10T07:53:54;16.10;99.90
20446;DHT22;10382;49.140;9.234;2023-05-10T07:56:23;16.40;99.90
20446;DHT22;10382;49.140;9.234;2023-05-10T07:58:52;16.50;99.90
20446;DHT22;10382;49.140;9.234;2023-05-10T08:01:19;16.60;99.90
20446;DHT22;10382;49.140;9.234;2023-05-10T08:03:47;16.80;99.90
20446;DHT22;10382;49.140;9.234;2023-05-10T08:06:17;17.10;99.90
20446;DHT22;10382;49.140;9.234;2023-05-10T08:08:44;17.30;99.90
20446;DHT22;10382;49.140;9.234;2023-05-10T08:11:14;17.40;99.90
20446;DHT22;10382;49.140;9.234;2023-05-10T08:13:41;17.60;99.90
20446;DHT22;10382;49.140;9.234;2023-05-10T08:16:08;17.70;99.90
20446;DHT22;10382;49.140;9.234;2023-05-10T08:18:35;17.80;99.90
20446;DHT22;10382;49.140;9.234;2023-05-10T08:21:03;17.70;99.90
20446;DHT22;10382;49.140;9.234;2023-05-10T08:23:30;17.60;99.90
20446;DHT22;10382;49.140;9.234;2023-05-10T08:25:57;17.70;99.90
20446;DHT22;10382;49.140;9.234;2023-05-10T08:28:24;17.70;99.90
20446;DHT22;10382;49.140;9.234;2023-05-10T08:30:51;17.70;99.90
20446;DHT22;10382;49.140;9.234;2023-05-10T08:33:18;17.60;99.90
20446;DHT22;10382;49.140;9.234;2023-05-10T08:35:45;17.30;99.90
20446;DHT22;10382;49.140;9.234;2023-05-10T08:38:13;17.10;99.90
20446;DHT22;10382;49.140;9.234;2023-05-10T08:40:41;17.00;99.90
20446;DHT22;10382;49.140;9.234;2023-05-10T08:43:11;17.10;99.90
20446;DHT22;10382;49.140;9.234;2023-05-10T08:45:41;17.20;99.90
20446;DHT22;10382;49.140;9.234;2023-05-10T08:48:09;17.20;99.90
20446;DHT22;10382;49.140;9.234;2023-05-10T08:50:38;17.20;99.90
20446;DHT22;10382;49.140;9.234;2023-05-10T08:53:08;17.30;99.90
20446;DHT22;10382;49.140;9.234;2023-05-10T08:55:37;17.40;99.90
20446;DHT22;10382;49.140;9.234;2023-05-10T08:58:05;17.50;99.90
20446;DHT22;10382;49.140;9.234;2023-05-10T09:00:32;17.60;99.90
20446;DHT22;10382;49.140;9.234;2023-05-10T09:03:01;17.70;99.90
20446;DHT22;10382;49.140;9.234;2023-05-10T09:05:28;17.70;99.90
20446;DHT22;10382;49.140;9.234;2023-05-10T09:07:55;17.80;99.90
20446;DHT22;10382;49.140;9.234;2023-05-10T09:10:23;17.80;99.90
20446;DHT22;10382;49.140;9.234;2023-05-10T09:12:53;17.90;99.90
20446;DHT22;10382;49.140;9.234;2023-05-10T09:15:20;18.00;99.90
20446;DHT22;10382;49.140;9.234;2023-05-10T09:17:48;18.20;99.90
20446;DHT22;10382;49.140;9.234;2023-05-10T09:20:15;18.30;99.90
20446;DHT22;10382;49.140;9.234;2023-05-10T09:22:43;18.60;99.90
20446;DHT22;10382;49.140;9.234;2023-05-10T09:25:12;18.70;99.90
20446;DHT22;10382;49.140;9.234;2023-05-10T09:27:40;18.50;99.90
20446;DHT22;10382;49.140;9.234;2023-05-10T09:30:09;18.50;99.90
20446;DHT22;10382;49.140;9.234;2023-05-10T09:32:37;18.60;99.90
20446;DHT22;10382;49.140;9.234;2023-05-10T09:35:09;18.70;99.90
20446;DHT22;10382;49.140;9.234;2023-05-10T09:37:36;18.80;99.90
20446;DHT22;10382;49.140;9.234;2023-05-10T09:40:08;19.00;99.90
20446;DHT22;10382;49.140;9.234;2023-05-10T09:42:37;19.40;99.90
20446;DHT22;10382;49.140;9.234;2023-05-10T09:45:05;19.50;99.90
20446;DHT22;10382;49.140;9.234;2023-05-10T09:47:34;19.40;99.90
20446;DHT22;10382;49.140;9.234;2023-05-10T09:50:02;19.10;99.90
20446;DHT22;10382;49.140;9.234;2023-05-10T09:52:30;18.90;99.90
20446;DHT22;10382;49.140;9.234;2023-05-10T09:54:57;18.70;99.90
20446;DHT22;10382;49.140;9.234;2023-05-10T09:57:24;18.60;99.90
20446;DHT22;10382;49.140;9.234;2023-05-10T09:59:52;18.40;99.90
20446;DHT22;10382;49.140;9.234;2023-05-10T10:02:20;18.40;99.90
20446;DHT22;10382;49.140;9.234;2023-05-10T10:04:50;18.40;99.90
20446;DHT22;10382;49.140;9.234;2023-05-10T10:07:22;18.70;99.90
20446;DHT22;10382;49.140;9.234;2023-05-10T10:09:50;18.90;99.90
20446;DHT22;10382;49.140;9.234;2023-05-10T10:12:17;19.20;99.90
20446;DHT22;10382;49.140;9.234;2023-05-10T10:14:46;19.20;99.90
20446;DHT22;10382;49.140;9.234;2023-05-10T10:17:13;19.10;99.90
20446;DHT22;10382;49.140;9.234;2023-05-10T10:19:41;19.10;99.90
20446;DHT22;10382;49.140;9.234;2023-05-10T10:22:10;19.10;99.90
20446;DHT22;10382;49.140;9.234;2023-05-10T10:24:38;18.80;99.90
20446;DHT22;10382;49.140;9.234;2023-05-10T10:27:15;18.40;99.90
20446;DHT22;10382;49.140;9.234;2023-05-10T10:29:52;18.00;99.90
20446;DHT22;10382;49.140;9.234;2023-05-10T10:32:26;17.70;99.90
20446;DHT22;10382;49.140;9.234;2023-05-10T10:34:54;17.50;99.90
20446;DHT22;10382;49.140;9.234;2023-05-10T10:37:24;17.20;99.90
20446;DHT22;10382;49.140;9.234;2023-05-10T10:40:26;17.20;99.90
20446;DHT22;10382;49.140;9.234;2023-05-10T10:42:53;17.10;99.90
20446;DHT22;10382;49.140;9.234;2023-05-10T10:45:21;17.10;99.90
20446;DHT22;10382;49.140;9.234;2023-05-10T10:47:48;17.10;99.90
20446;DHT22;10382;49.140;9.234;2023-05-10T10:50:17;17.30;99.90
20446;DHT22;10382;49.140;9.234;2023-05-10T10:52:45;17.40;99.90
20446;DHT22;10382;49.140;9.234;2023-05-10T10:55:17;17.60;99.90
20446;DHT22;10382;49.140;9.234;2023-05-10T10:57:46;17.90;99.90
20446;DHT22;10382;49.140;9.234;2023-05-10T11:00:22;18.10;99.90
20446;DHT22;10382;49.140;9.234;2023-05-10T11:02:50;18.30;99.90
20446;DHT22;10382;49.140;9.234;2023-05-10T11:08:18;18.90;99.90
20446;DHT22;10382;49.140;9.234;2023-05-10T11:11:02;19.60;99.90
20446;DHT22;10382;49.140;9.234;2023-05-10T11:13:33;19.80;99.90
20446;DHT22;10382;49.140;9.234;2023-05-10T11:16:14;19.80;99.90
20446;DHT22;10382;49.140;9.234;2023-05-10T11:18:41;19.80;99.90
20446;DHT22;10382;49.140;9.234;2023-05-10T11:21:18;19.60;99.90
20446;DHT22;10382;49.140;9.234;2023-05-10T11:23:51;19.20;99.90
20446;DHT22;10382;49.140;9.234;2023-05-10T11:26:21;18.80;99.90
20446;DHT22;10382;49.140;9.234;2023-05-10T11:28:52;18.40;99.90
20446;DHT22;10382;49.140;9.234;2023-05-10T11:31:21;18.20;99.90
20446;DHT22;10382;49.140;9.234;2023-05-10T11:33:50;18.10;99.90
20446;DHT22;10382;49.140;9.234;2023-05-10T11:36:18;18.20;99.90
20446;DHT22;10382;49.140;9.234;2023-05-10T11:38:46;18.30;99.90
20446;DHT22;10382;49.140;9.234;2023-05-10T11:41:16;18.20;99.90
20446;DHT22;10382;49.140;9.234;2023-05-10T11:43:46;18.00;99.90
20446;DHT22;10382;49.140;9.234;2023-05-10T11:46:14;18.00;99.90
20446;DHT22;10382;49.140;9.234;2023-05-10T11:48:42;18.10;99.90
20446;DHT22;10382;49.140;9.234;2023-05-10T11:51:10;18.30;99.90
20446;DHT22;10382;49.140;9.234;2023-05-10T11:53:37;18.50;99.90
20446;DHT22;10382;49.140;9.234;2023-05-10T11:56:05;18.70;99.90
20446;DHT22;10382;49.140;9.234;2023-05-10T11:58:34;18.90;99.90
20446;DHT22;10382;49.140;9.234;2023-05-10T12:01:02;19.00;99.90
20446;DHT22;10382;49.140;9.234;2023-05-10T12:03:29;19.00;99.90
20446;DHT22;10382;49.140;9.234;2023-05-10T12:05:57;18.90;99.90
20446;DHT22;10382;49.140;9.234;2023-05-10T12:08:25;19.00;99.90
20446;DHT22;10382;49.140;9.234;2023-05-10T12:10:54;19.10;99.90
20446;DHT22;10382;49.140;9.234;2023-05-10T12:13:30;19.40;99.90
20446;DHT22;10382;49.140;9.234;2023-05-10T12:15:58;19.50;99.90
20446;DHT22;10382;49.140;9.234;2023-05-10T12:18:26;19.60;99.90
20446;DHT22;10382;49.140;9.234;2023-05-10T12:20:53;19.70;99.90
20446;DHT22;10382;49.140;9.234;2023-05-10T12:23:20;19.80;99.90
20446;DHT22;10382;49.140;9.234;2023-05-10T12:25:47;19.60;99.90
20446;DHT22;10382;49.140;9.234;2023-05-10T12:28:14;19.40;99.90
20446;DHT22;10382;49.140;9.234;2023-05-10T12:30:41;19.40;99.90
20446;DHT22;10382;49.140;9.234;2023-05-10T12:33:11;19.30;99.90
20446;DHT22;10382;49.140;9.234;2023-05-10T12:35:46;19.20;99.90
20446;DHT22;10382;49.140;9.234;2023-05-10T12:38:28;19.20;99.90
20446;DHT22;10382;49.140;9.234;2023-05-10T12:40:56;19.10;99.90
20446;DHT22;10382;49.140;9.234;2023-05-10T12:43:23;19.00;99.90
20446;DHT22;10382;49.140;9.234;2023-05-10T12:45:51;19.10;99.90
20446;DHT22;10382;49.140;9.234;2023-05-10T12:48:19;19.00;99.90
20446;DHT22;10382;49.140;9.234;2023-05-10T12:50:47;19.00;99.90
20446;DHT22;10382;49.140;9.234;2023-05-10T12:53:14;18.90;99.90
20446;DHT22;10382;49.140;9.234;2023-05-10T12:55:42;19.00;99.90
20446;DHT22;10382;49.140;9.234;2023-05-10T12:58:08;19.10;99.90
20446;DHT22;10382;49.140;9.234;2023-05-10T13:00:35;19.40;99.90
20446;DHT22;10382;49.140;9.234;2023-05-10T13:03:03;19.50;99.90
20446;DHT22;10382;49.140;9.234;2023-05-10T13:05:32;19.60;99.90
20446;DHT22;10382;49.140;9.234;2023-05-10T13:07:59;19.80;99.90
20446;DHT22;10382;49.140;9.234;2023-05-10T13:10:26;19.80;99.90
20446;DHT22;10382;49.140;9.234;2023-05-10T13:12:53;20.00;99.90
20446;DHT22;10382;49.140;9.234;2023-05-10T13:15:20;20.10;99.90
20446;DHT22;10382;49.140;9.234;2023-05-10T13:17:47;20.00;99.90
20446;DHT22;10382;49.140;9.234;2023-05-10T13:20:14;20.10;99.90
20446;DHT22;10382;49.140;9.234;2023-05-10T13:22:43;20.10;99.90
20446;DHT22;10382;49.140;9.234;2023-05-10T13:25:11;20.10;99.90
20446;DHT22;10382;49.140;9.234;2023-05-10T13:27:38;20.10;99.90
20446;DHT22;10382;49.140;9.234;2023-05-10T13:30:06;20.20;99.90
20446;DHT22;10382;49.140;9.234;2023-05-10T13:32:33;20.40;99.90
20446;DHT22;10382;49.140;9.234;2023-05-10T13:35:00;20.60;99.90
20446;DHT22;10382;49.140;9.234;2023-05-10T13:37:28;20.70;99.90
20446;DHT22;10382;49.140;9.234;2023-05-10T13:39:57;20.70;99.90
20446;DHT22;10382;49.140;9.234;2023-05-10T13:42:24;20.70;99.90
20446;DHT22;10382;49.140;9.234;2023-05-10T13:44:51;20.80;99.90
20446;DHT22;10382;49.140;9.234;2023-05-10T13:47:18;20.90;99.90
20446;DHT22;10382;49.140;9.234;2023-05-10T13:49:47;20.90;99.90
20446;DHT22;10382;49.140;9.234;2023-05-10T13:52:13;21.00;99.90
20446;DHT22;10382;49.140;9.234;2023-05-10T13:54:40;21.00;99.90
20446;DHT22;10382;49.140;9.234;2023-05-10T13:57:09;21.00;99.90
20446;DHT22;10382;49.140;9.234;2023-05-10T13:59:38;20.90;99.90
20446;DHT22;10382;49.140;9.234;2023-05-10T14:02:05;20.80;99.90
20446;DHT22;10382;49.140;9.234;2023-05-10T14:04:31;20.70;99.90
20446;DHT22;10382;49.140;9.234;2023-05-10T14:07:00;20.50;99.90
20446;DHT22;10382;49.140;9.234;2023-05-10T14:09:27;20.30;99.90
20446;DHT22;10382;49.140;9.234;2023-05-10T14:11:54;20.00;99.90
20446;DHT22;10382;49.140;9.234;2023-05-10T14:14:22;19.70;99.90
20446;DHT22;10382;49.140;9.234;2023-05-10T14:16:49;19.80;99.90
20446;DHT22;10382;49.140;9.234;2023-05-10T14:19:16;19.80;99.90
20446;DHT22;10382;49.140;9.234;2023-05-10T14:21:43;20.00;99.90
20446;DHT22;10382;49.140;9.234;2023-05-10T14:24:10;20.00;99.90
20446;DHT22;10382;49.140;9.234;2023-05-10T14:26:37;20.00;99.90
20446;DHT22;10382;49.140;9.234;2023-05-10T14:29:04;19.90;99.90
20446;DHT22;10382;49.140;9.234;2023-05-10T14:31:32;19.50;99.90
20446;DHT22;10382;49.140;9.234;2023-05-10T14:33:59;19.30;99.90
20446;DHT22;10382;49.140;9.234;2023-05-10T14:36:26;19.30;99.90
20446;DHT22;10382;49.140;9.234;2023-05-10T14:38:52;19.30;99.90
20446;DHT22;10382;49.140;9.234;2023-05-10T14:41:19;19.20;99.90
20446;DHT22;10382;49.140;9.234;2023-05-10T14:43:46;19.20;99.90
20446;DHT22;10382;49.140;9.234;2023-05-10T14:46:13;19.40;99.90
20446;DHT22;10382;49.140;9.234;2023-05-10T14:48:42;19.60;99.90
20446;DHT22;10382;49.140;9.234;2023-05-10T14:51:09;19.70;99.90
20446;DHT22;10382;49.140;9.234;2023-05-10T14:53:36;19.90;99.90
20446;DHT22;10382;49.140;9.234;2023-05-10T14:56:03;19.80;99.90
20446;DHT22;10382;49.140;9.234;2023-05-10T14:58:30;19.50;99.90
20446;DHT22;10382;49.140;9.234;2023-05-10T15:00:57;19.30;99.90
20446;DHT22;10382;49.140;9.234;2023-05-10T15:03:24;19.10;99.90
20446;DHT22;10382;49.140;9.234;2023-05-10T15:05:52;19.00;99.90
20446;DHT22;10382;49.140;9.234;2023-05-10T15:08:19;19.00;99.90
20446;DHT22;10382;49.140;9.234;2023-05-10T15:10:46;19.10;99.90
20446;DHT22;10382;49.140;9.234;2023-05-10T15:13:14;19.30;99.90
20446;DHT22;10382;49.140;9.234;2023-05-10T15:15:40;19.60;99.90
20446;DHT22;10382;49.140;9.234;2023-05-10T15:18:08;19.70;99.90
20446;DHT22;10382;49.140;9.234;2023-05-10T15:20:35;19.90;99.90
20446;DHT22;10382;49.140;9.234;2023-05-10T15:23:03;20.10;99.90
20446;DHT22;10382;49.140;9.234;2023-05-10T15:25:30;20.20;99.90
20446;DHT22;10382;49.140;9.234;2023-05-10T15:28:00;19.90;99.90
20446;DHT22;10382;49.140;9.234;2023-05-10T15:30:27;19.80;99.90
20446;DHT22;10382;49.140;9.234;2023-05-10T15:32:54;19.60;99.90
20446;DHT22;10382;49.140;9.234;2023-05-10T15:35:21;19.40;99.90
20446;DHT22;10382;49.140;9.234;2023-05-10T15:37:48;19.30;99.90
20446;DHT22;10382;49.140;9.234;2023-05-10T15:40:16;19.20;99.90
20446;DHT22;10382;49.140;9.234;2023-05-10T15:42:43;19.10;99.90
20446;DHT22;10382;49.140;9.234;2023-05-10T15:45:11;19.10;99.90